createdAt,value
2024-04-08T00:01:13.079Z,96836.22
2024-04-08T00:03:41.107Z,96842.78
2024-04-08T00:06:07.867Z,96838.25
2024-04-08T00:08:34.574Z,96830.09
2024-04-08T00:11:08.706Z,96822.91
2024-04-08T00:13:38.811Z,96817.38
2024-04-08T00:16:11.309Z,96819.28
2024-04-08T00:18:38.109Z,96818.59
2024-04-08T00:21:06.215Z,96816.78
2024-04-08T00:23:36.379Z,96823.03
2024-04-08T00:26:07.042Z,96812.72
2024-04-08T00:28:40.432Z,96815.63
2024-04-08T00:31:12.021Z,96817.19
2024-04-08T00:33:39.933Z,96818.88
2024-04-08T00:36:07.456Z,96818.63
2024-04-08T00:38:35.424Z,96806.78
2024-04-08T00:41:04.757Z,96811.56
2024-04-08T00:43:31.467Z,96805.94
2024-04-08T00:46:03.838Z,96806.16
2024-04-08T00:48:30.654Z,96801.63
2024-04-08T00:50:57.604Z,96801.50
2024-04-08T00:53:24.933Z,96802.47
2024-04-08T00:55:54.422Z,96802.00
2024-04-08T00:58:26.900Z,96796.72
2024-04-08T01:00:54.611Z,96798.75
2024-04-08T01:03:21.611Z,96792.63
2024-04-08T01:05:49.324Z,96787.47
2024-04-08T01:08:16.124Z,96784.72
2024-04-08T01:10:46.046Z,96782.78
2024-04-08T01:13:12.700Z,96788.94
2024-04-08T01:15:40.067Z,96786.03
2024-04-08T01:18:06.739Z,96775.13
2024-04-08T01:20:44.207Z,96789.03
2024-04-08T01:23:14.422Z,96786.03
2024-04-08T01:25:41.092Z,96787.31
2024-04-08T01:28:07.807Z,96777.03
2024-04-08T01:30:34.458Z,96779.19
2024-04-08T01:33:01.058Z,96768.50
2024-04-08T01:35:27.809Z,96760.25
2024-04-08T01:37:54.472Z,96766.50
2024-04-08T01:40:21.289Z,96761.69
2024-04-08T01:42:47.933Z,96754.00
2024-04-08T01:45:14.935Z,96758.47
2024-04-08T01:47:41.656Z,96759.03
2024-04-08T01:50:08.468Z,96762.28
2024-04-08T01:52:35.074Z,96756.19
2024-04-08T01:55:02.317Z,96749.69
2024-04-08T01:57:29.073Z,96748.03
2024-04-08T01:59:55.729Z,96750.69
2024-04-08T02:02:22.378Z,96750.63
2024-04-08T02:04:48.981Z,96743.53
2024-04-08T02:07:15.911Z,96740.28
2024-04-08T02:09:42.567Z,96745.81
2024-04-08T02:12:09.815Z,96743.63
2024-04-08T02:14:36.471Z,96749.22
2024-04-08T02:17:03.143Z,96745.28
2024-04-08T02:19:29.780Z,96753.16
2024-04-08T02:21:56.396Z,96749.66
2024-04-08T02:24:23.355Z,96753.09
2024-04-08T02:26:50.035Z,96750.59
2024-04-08T02:29:16.723Z,96744.69
2024-04-08T02:31:43.340Z,96745.53
2024-04-08T02:34:09.972Z,96738.94
2024-04-08T02:36:36.665Z,96738.00
2024-04-08T02:39:04.704Z,96740.50
2024-04-08T02:41:31.391Z,96742.44
2024-04-08T02:43:58.115Z,96747.78
2024-04-08T02:46:24.754Z,96741.97
2024-04-08T02:48:51.809Z,96738.16
2024-04-08T02:51:19.231Z,96744.38
2024-04-08T02:53:45.943Z,96739.00
2024-04-08T02:56:12.894Z,96732.78
2024-04-08T02:58:40.369Z,96726.47
2024-04-08T03:01:11.162Z,96731.72
2024-04-08T03:03:38.523Z,96729.22
2024-04-08T03:06:16.528Z,96725.75
2024-04-08T03:08:44.318Z,96724.69
2024-04-08T03:11:11.171Z,96720.50
2024-04-08T03:13:40.398Z,96717.44
2024-04-08T03:16:07.530Z,96713.75
2024-04-08T03:18:34.141Z,96712.09
2024-04-08T03:21:03.324Z,96720.94
2024-04-08T03:23:30.578Z,96728.09
2024-04-08T03:26:08.143Z,96722.00
2024-04-08T03:28:35.192Z,96724.13
2024-04-08T03:31:09.327Z,96722.56
2024-04-08T03:33:36.412Z,96716.47
2024-04-08T03:36:09.704Z,96707.13
2024-04-08T03:38:36.736Z,96703.41
2024-04-08T03:41:05.863Z,96707.84
2024-04-08T03:43:34.153Z,96709.13
2024-04-08T03:46:01.552Z,96709.97
2024-04-08T03:48:28.366Z,96717.34
2024-04-08T03:50:55.028Z,96718.88
2024-04-08T03:53:21.690Z,96719.19
2024-04-08T03:55:48.330Z,96709.44
2024-04-08T03:58:14.996Z,96712.69
2024-04-08T04:00:41.630Z,96712.59
2024-04-08T04:03:10.801Z,96713.53
2024-04-08T04:05:37.723Z,96704.31
2024-04-08T04:08:04.810Z,96701.69
2024-04-08T04:10:31.520Z,96700.31
2024-04-08T04:12:58.295Z,96706.94
2024-04-08T04:15:24.945Z,96694.34
2024-04-08T04:17:51.639Z,96698.97
2024-04-08T04:20:22.377Z,96707.38
2024-04-08T04:22:49.007Z,96701.03
2024-04-08T04:25:15.706Z,96702.25
2024-04-08T04:27:42.429Z,96696.22
2024-04-08T04:30:09.379Z,96689.31
2024-04-08T04:32:36.129Z,96687.09
2024-04-08T04:35:02.790Z,96690.69
2024-04-08T04:37:29.404Z,96691.63
2024-04-08T04:39:56.154Z,96688.69
2024-04-08T04:42:22.884Z,96682.91
2024-04-08T04:44:49.495Z,96687.34
2024-04-08T04:47:16.321Z,96690.03
2024-04-08T04:49:42.965Z,96696.44
2024-04-08T04:52:13.874Z,96701.06
2024-04-08T04:54:41.105Z,96699.50
2024-04-08T04:57:07.702Z,96706.78
2024-04-08T04:59:34.524Z,96712.13
2024-04-08T05:02:01.205Z,96713.69
2024-04-08T05:04:27.853Z,96722.56
2024-04-08T05:06:54.504Z,96721.69
2024-04-08T05:09:22.019Z,96717.38
2024-04-08T05:11:49.030Z,96716.25
2024-04-08T05:14:15.726Z,96725.06
2024-04-08T05:16:42.588Z,96726.69
2024-04-08T05:19:09.200Z,96726.63
2024-04-08T05:21:35.831Z,96718.72
2024-04-08T05:24:02.551Z,96727.13
2024-04-08T05:26:29.226Z,96722.44
2024-04-08T05:28:55.958Z,96722.13
2024-04-08T05:31:22.675Z,96733.13
2024-04-08T05:33:49.358Z,96729.22
2024-04-08T05:36:16.000Z,96743.25
2024-04-08T05:38:42.677Z,96733.91
2024-04-08T05:41:09.328Z,96748.25
2024-04-08T05:43:35.934Z,96748.13
2024-04-08T05:46:02.629Z,96747.00
2024-04-08T05:48:29.408Z,96742.19
2024-04-08T05:50:56.159Z,96743.81
2024-04-08T05:53:22.892Z,96744.72
2024-04-08T05:55:49.536Z,96741.03
2024-04-08T05:58:16.174Z,96745.22
2024-04-08T06:00:42.907Z,96747.66
2024-04-08T06:03:09.617Z,96745.66
2024-04-08T06:05:36.590Z,96746.31
2024-04-08T06:08:03.559Z,96749.63
2024-04-08T06:10:35.648Z,96751.31
2024-04-08T06:13:02.300Z,96751.63
2024-04-08T06:15:29.812Z,96757.75
2024-04-08T06:17:56.704Z,96763.03
2024-04-08T06:20:23.447Z,96758.94
2024-04-08T06:22:50.129Z,96757.47
2024-04-08T06:25:16.762Z,96765.91
2024-04-08T06:27:43.448Z,96766.72
2024-04-08T06:30:10.585Z,96768.44
2024-04-08T06:32:37.729Z,96774.41
2024-04-08T06:35:04.807Z,96767.81
2024-04-08T06:37:31.438Z,96774.31
2024-04-08T06:39:58.058Z,96769.19
2024-04-08T06:42:24.683Z,96770.13
2024-04-08T06:44:52.620Z,96769.31
2024-04-08T06:47:25.524Z,96774.97
2024-04-08T06:49:52.171Z,96772.91
2024-04-08T06:52:18.797Z,96784.03
2024-04-08T06:54:45.674Z,96773.38
2024-04-08T06:57:12.536Z,96781.53
2024-04-08T06:59:39.308Z,96783.53
2024-04-08T07:02:06.673Z,96790.59
2024-04-08T07:04:33.991Z,96790.88
2024-04-08T07:07:00.790Z,96791.41
2024-04-08T07:09:28.477Z,96793.69
2024-04-08T07:11:58.866Z,96778.84
2024-04-08T07:14:26.234Z,96782.38
2024-04-08T07:16:52.941Z,96792.34
2024-04-08T07:19:19.632Z,96785.94
2024-04-08T07:21:46.260Z,96788.44
2024-04-08T07:24:12.901Z,96791.28
2024-04-08T07:26:39.597Z,96795.09
2024-04-08T07:29:06.412Z,96806.63
2024-04-08T07:31:33.113Z,96803.31
2024-04-08T07:33:59.732Z,96809.44
2024-04-08T07:36:26.412Z,96807.44
2024-04-08T07:39:01.320Z,96805.75
2024-04-08T07:41:29.469Z,96812.06
2024-04-08T07:43:56.133Z,96805.78
2024-04-08T07:46:22.843Z,96810.50
2024-04-08T07:48:49.812Z,96802.78
2024-04-08T07:51:16.560Z,96802.28
2024-04-08T07:53:43.689Z,96805.53
2024-04-08T07:56:10.389Z,96809.50
2024-04-08T07:58:37.213Z,96818.75
2024-04-08T08:01:05.070Z,96814.03
2024-04-08T08:03:32.775Z,96812.25
2024-04-08T08:06:01.023Z,96806.00
2024-04-08T08:08:29.756Z,96804.78
2024-04-08T08:11:05.939Z,96803.16
2024-04-08T08:13:34.692Z,96796.22
2024-04-08T08:16:02.298Z,96795.88
2024-04-08T08:18:30.578Z,96789.03
2024-04-08T08:20:58.040Z,96796.13
2024-04-08T08:23:24.792Z,96788.59
2024-04-08T08:25:54.445Z,96787.97
2024-04-08T08:28:21.755Z,96776.97
2024-04-08T08:30:48.487Z,96780.66
2024-04-08T08:33:15.230Z,96777.22
2024-04-08T08:35:42.191Z,96770.50
2024-04-08T08:38:08.978Z,96757.28
2024-04-08T08:40:44.276Z,96756.50
2024-04-08T08:43:12.208Z,96752.22
2024-04-08T08:45:42.478Z,96757.91
2024-04-08T08:48:10.179Z,96755.75
2024-04-08T08:50:37.913Z,96765.22
2024-04-08T08:53:06.102Z,96757.75
2024-04-08T08:55:34.368Z,96757.72
2024-04-08T08:58:04.433Z,96745.56
2024-04-08T09:00:32.701Z,96752.56
2024-04-08T09:03:01.091Z,96748.69
2024-04-08T09:05:27.815Z,96747.16
2024-04-08T09:07:54.461Z,96746.38
2024-04-08T09:10:21.832Z,96745.34
2024-04-08T09:12:48.670Z,96748.63
2024-04-08T09:15:15.384Z,96737.47
2024-04-08T09:17:43.008Z,96740.16
2024-04-08T09:20:10.059Z,96741.19
2024-04-08T09:22:36.749Z,96741.63
2024-04-08T09:25:03.708Z,96737.50
2024-04-08T09:27:30.418Z,96744.50
2024-04-08T09:29:57.087Z,96750.13
2024-04-08T09:32:23.802Z,96742.84
2024-04-08T09:34:50.598Z,96739.31
2024-04-08T09:37:19.971Z,96741.34
2024-04-08T09:39:47.832Z,96735.03
2024-04-08T09:42:17.410Z,96732.38
2024-04-08T09:44:46.061Z,96727.16
2024-04-08T09:47:14.194Z,96720.59
2024-04-08T09:49:47.976Z,96715.13
2024-04-08T09:52:20.044Z,96709.78
2024-04-08T09:54:46.726Z,96711.03
2024-04-08T09:57:17.013Z,96704.22
2024-04-08T09:59:46.346Z,96702.25
2024-04-08T10:02:19.234Z,96697.59
2024-04-08T10:04:49.699Z,96691.84
2024-04-08T10:07:16.664Z,96690.50
2024-04-08T10:09:43.658Z,96692.84
2024-04-08T10:12:10.679Z,96684.22
2024-04-08T10:14:37.340Z,96684.44
2024-04-08T10:17:04.193Z,96680.06
2024-04-08T10:19:30.892Z,96676.94
2024-04-08T10:22:02.396Z,96677.84
2024-04-08T10:24:39.855Z,96664.91
2024-04-08T10:27:09.271Z,96670.47
2024-04-08T10:29:39.268Z,96660.88
2024-04-08T10:32:07.745Z,96658.31
2024-04-08T10:34:38.061Z,96666.81
2024-04-08T10:37:04.988Z,96658.28
2024-04-08T10:39:31.683Z,96661.09
2024-04-08T10:41:59.560Z,96646.28
2024-04-08T10:44:29.318Z,96647.72
2024-04-08T10:46:56.232Z,96644.81
2024-04-08T10:49:22.901Z,96647.13
2024-04-08T10:51:52.277Z,96637.66
2024-04-08T10:54:19.633Z,96633.56
2024-04-08T10:56:46.431Z,96634.72
2024-04-08T10:59:13.087Z,96629.75
2024-04-08T11:01:40.124Z,96625.28
2024-04-08T11:04:07.468Z,96628.19
2024-04-08T11:06:34.852Z,96627.22
2024-04-08T11:09:01.734Z,96623.88
2024-04-08T11:11:28.456Z,96615.91
2024-04-08T11:13:55.117Z,96615.59
2024-04-08T11:16:21.775Z,96607.97
2024-04-08T11:18:48.783Z,96607.53
2024-04-08T11:21:15.793Z,96602.53
2024-04-08T11:23:43.053Z,96600.38
2024-04-08T11:26:10.233Z,96600.22
2024-04-08T11:28:39.752Z,96600.00
2024-04-08T11:31:07.419Z,96595.25
2024-04-08T11:33:34.408Z,96588.09
2024-04-08T11:36:02.148Z,96584.34
2024-04-08T11:38:35.885Z,96580.47
2024-04-08T11:41:07.819Z,96581.38
2024-04-08T11:43:35.422Z,96577.53
2024-04-08T11:46:04.695Z,96574.34
2024-04-08T11:48:32.533Z,96568.34
2024-04-08T11:50:59.526Z,96560.91
2024-04-08T11:53:26.246Z,96571.13
2024-04-08T11:55:52.873Z,96556.16
2024-04-08T11:58:19.552Z,96555.47
2024-04-08T12:00:46.294Z,96550.13
2024-04-08T12:03:13.139Z,96559.00
2024-04-08T12:05:39.858Z,96557.53
2024-04-08T12:08:08.504Z,96552.19
2024-04-08T12:10:35.481Z,96554.25
2024-04-08T12:13:18.135Z,96547.41
2024-04-08T12:15:45.522Z,96540.91
2024-04-08T12:18:12.150Z,96534.88
2024-04-08T12:20:38.827Z,96536.66
2024-04-08T12:23:07.309Z,96538.16
2024-04-08T12:25:36.852Z,96539.56
2024-04-08T12:28:05.081Z,96532.63
2024-04-08T12:30:31.811Z,96525.91
2024-04-08T12:32:58.902Z,96520.38
2024-04-08T12:35:25.780Z,96521.72
2024-04-08T12:37:52.554Z,96516.09
2024-04-08T12:40:19.385Z,96517.09
2024-04-08T12:42:46.113Z,96512.88
2024-04-08T12:45:15.636Z,96508.25
2024-04-08T12:47:43.125Z,96506.03
2024-04-08T12:50:10.340Z,96505.88
2024-04-08T12:52:37.154Z,96501.91
2024-04-08T12:55:04.517Z,96499.69
2024-04-08T12:57:31.429Z,96494.34
2024-04-08T12:59:58.109Z,96503.63
2024-04-08T13:02:27.294Z,96502.94
2024-04-08T13:04:54.906Z,96491.88
2024-04-08T13:07:22.679Z,96490.97
2024-04-08T13:09:50.374Z,96486.81
2024-04-08T13:12:17.202Z,96489.97
2024-04-08T13:14:44.302Z,96491.44
2024-04-08T13:17:11.199Z,96494.00
2024-04-08T13:19:37.855Z,96482.44
2024-04-08T13:22:04.714Z,96478.59
2024-04-08T13:24:32.080Z,96471.63
2024-04-08T13:26:59.069Z,96482.03
2024-04-08T13:29:25.945Z,96475.28
2024-04-08T13:31:53.128Z,96470.09
2024-04-08T13:34:20.157Z,96467.38
2024-04-08T13:36:47.328Z,96467.66
2024-04-08T13:39:13.997Z,96468.63
2024-04-08T13:41:40.781Z,96463.78
2024-04-08T13:44:07.425Z,96461.47
2024-04-08T13:46:34.513Z,96460.53
2024-04-08T13:49:01.374Z,96457.81
2024-04-08T13:51:28.131Z,96462.63
2024-04-08T13:53:55.058Z,96463.63
2024-04-08T13:56:22.026Z,96454.09
2024-04-08T13:58:51.072Z,96450.59
2024-04-08T14:01:18.083Z,96447.66
2024-04-08T14:03:45.051Z,96449.88
2024-04-08T14:06:13.699Z,96441.84
2024-04-08T14:08:40.707Z,96441.28
2024-04-08T14:11:13.695Z,96439.53
2024-04-08T14:13:40.478Z,96443.38
2024-04-08T14:16:08.383Z,96448.84
2024-04-08T14:18:35.792Z,96435.25
2024-04-08T14:21:02.539Z,96441.13
2024-04-08T14:23:29.243Z,96435.78
2024-04-08T14:25:55.922Z,96438.97
2024-04-08T14:28:22.530Z,96430.25
2024-04-08T14:30:49.377Z,96433.94
2024-04-08T14:33:16.118Z,96439.81
2024-04-08T14:35:42.960Z,96437.09
2024-04-08T14:38:30.649Z,96437.78
2024-04-08T14:40:56.228Z,96439.72
2024-04-08T14:43:28.596Z,96437.41
2024-04-08T14:46:00.251Z,96436.19
2024-04-08T14:48:27.197Z,96442.94
2024-04-08T14:50:54.098Z,96439.56
2024-04-08T14:53:20.989Z,96425.91
2024-04-08T14:55:47.855Z,96430.69
2024-04-08T14:58:14.577Z,96434.06
2024-04-08T15:00:41.305Z,96431.69
2024-04-08T15:03:08.099Z,96434.22
2024-04-08T15:05:34.780Z,96436.00
2024-04-08T15:08:06.102Z,96436.41
2024-04-08T15:10:32.825Z,96423.47
2024-04-08T15:12:59.467Z,96423.09
2024-04-08T15:15:26.212Z,96423.81
2024-04-08T15:17:53.194Z,96426.06
2024-04-08T15:20:19.885Z,96425.88
2024-04-08T15:22:46.539Z,96427.94
2024-04-08T15:25:13.481Z,96424.38
2024-04-08T15:27:40.760Z,96418.59
2024-04-08T15:30:08.181Z,96414.81
2024-04-08T15:32:34.974Z,96411.53
2024-04-08T15:35:01.751Z,96406.44
2024-04-08T15:37:28.445Z,96410.50
2024-04-08T15:39:55.087Z,96403.31
2024-04-08T15:42:22.024Z,96407.44
2024-04-08T15:44:49.011Z,96402.53
2024-04-08T15:47:15.756Z,96401.47
2024-04-08T15:49:42.471Z,96409.94
2024-04-08T15:52:09.657Z,96408.06
2024-04-08T15:54:36.637Z,96407.16
2024-04-08T15:57:04.994Z,96408.69
2024-04-08T15:59:33.702Z,96403.88
2024-04-08T16:02:00.783Z,96404.66
2024-04-08T16:04:28.101Z,96405.38
2024-04-08T16:06:55.314Z,96396.13
2024-04-08T16:09:22.126Z,96400.16
2024-04-08T16:11:49.091Z,96395.34
2024-04-08T16:14:16.029Z,96394.25
2024-04-08T16:16:42.783Z,96389.75
2024-04-08T16:19:09.802Z,96392.41
2024-04-08T16:21:36.465Z,96395.81
2024-04-08T16:24:03.224Z,96399.25
2024-04-08T16:26:29.930Z,96395.19
2024-04-08T16:29:01.077Z,96395.13
2024-04-08T16:31:32.890Z,96399.78
2024-04-08T16:34:00.992Z,96397.19
2024-04-08T16:36:30.476Z,96396.69
2024-04-08T16:38:58.411Z,96400.50
2024-04-08T16:41:25.348Z,96393.50
2024-04-08T16:43:52.546Z,96394.03
2024-04-08T16:46:20.176Z,96402.56
2024-04-08T16:48:47.303Z,96399.72
2024-04-08T16:51:15.108Z,96403.16
2024-04-08T16:53:46.725Z,96396.97
2024-04-08T16:56:13.376Z,96407.22
2024-04-08T16:58:40.014Z,96403.13
2024-04-08T17:01:06.635Z,96399.25
2024-04-08T17:03:33.674Z,96404.09
2024-04-08T17:06:01.284Z,96406.38
2024-04-08T17:08:30.100Z,96407.06
2024-04-08T17:11:01.813Z,96405.88
2024-04-08T17:13:30.718Z,96410.50
2024-04-08T17:15:57.394Z,96394.38
2024-04-08T17:18:24.148Z,96405.22
2024-04-08T17:20:54.650Z,96400.66
2024-04-08T17:23:21.420Z,96400.47
2024-04-08T17:25:55.526Z,96398.44
2024-04-08T17:28:28.009Z,96399.72
2024-04-08T17:31:04.520Z,96392.28
2024-04-08T17:33:35.437Z,96393.50
2024-04-08T17:36:05.892Z,96395.75
2024-04-08T17:38:40.579Z,96386.03
2024-04-08T17:41:15.795Z,96380.44
2024-04-08T17:43:43.635Z,96377.94
2024-04-08T17:46:10.722Z,96386.59
2024-04-08T17:48:38.975Z,96389.66
2024-04-08T17:51:07.848Z,96387.97
2024-04-08T17:53:39.434Z,96384.00
2024-04-08T17:56:12.314Z,96386.88
2024-04-08T17:58:39.443Z,96395.09
2024-04-08T18:01:08.861Z,96392.84
2024-04-08T18:03:40.515Z,96393.84
2024-04-08T18:06:21.046Z,96388.22
2024-04-08T18:08:49.023Z,96390.66
2024-04-08T18:11:16.181Z,96391.38
2024-04-08T18:13:43.336Z,96390.00
2024-04-08T18:16:20.393Z,96393.59
2024-04-08T18:18:52.229Z,96399.72
2024-04-08T18:21:21.293Z,96392.75
2024-04-08T18:23:49.763Z,96401.53
2024-04-08T18:26:19.838Z,96406.38
2024-04-08T18:28:52.218Z,96412.41
2024-04-08T18:31:19.226Z,96407.94
2024-04-08T18:33:46.655Z,96411.66
2024-04-08T18:36:15.188Z,96400.56
2024-04-08T18:38:42.199Z,96406.22
2024-04-08T18:41:17.039Z,96406.47
2024-04-08T18:43:43.817Z,96401.59
2024-04-08T18:46:21.594Z,96397.91
2024-04-08T18:48:49.815Z,96404.72
2024-04-08T18:51:17.497Z,96404.63
2024-04-08T18:53:46.064Z,96401.69
2024-04-08T18:56:12.962Z,96394.66
2024-04-08T18:58:40.795Z,96390.41
2024-04-08T19:01:13.629Z,96392.00
2024-04-08T19:03:44.310Z,96400.00
2024-04-08T19:06:12.643Z,96387.75
2024-04-08T19:08:39.275Z,96393.72
2024-04-08T19:11:05.937Z,96397.09
2024-04-08T19:13:32.753Z,96388.16
2024-04-08T19:16:05.433Z,96391.88
2024-04-08T19:18:34.743Z,96402.59
2024-04-08T19:21:09.086Z,96397.25
2024-04-08T19:23:36.379Z,96395.78
2024-04-08T19:26:04.884Z,96397.84
2024-04-08T19:28:32.249Z,96395.13
2024-04-08T19:30:59.021Z,96397.38
2024-04-08T19:33:26.373Z,96396.59
2024-04-08T19:35:55.154Z,96408.16
2024-04-08T19:38:23.105Z,96397.03
2024-04-08T19:41:04.461Z,96398.22
2024-04-08T19:43:31.498Z,96396.94
2024-04-08T19:46:12.476Z,96397.63
2024-04-08T19:48:41.120Z,96394.31
2024-04-08T19:51:22.698Z,96392.00
2024-04-08T19:53:54.106Z,96396.84
2024-04-08T19:56:23.351Z,96396.53
2024-04-08T19:58:50.907Z,96395.38
2024-04-08T20:01:17.887Z,96387.38
2024-04-08T20:03:44.837Z,96389.59
2024-04-08T20:06:11.689Z,96391.63
2024-04-08T20:08:39.792Z,96398.13
2024-04-08T20:11:10.490Z,96390.50
2024-04-08T20:13:38.327Z,96396.16
2024-04-08T20:16:22.762Z,96386.31
2024-04-08T20:18:50.491Z,96386.50
2024-04-08T20:21:21.394Z,96384.81
2024-04-08T20:23:48.222Z,96383.47
2024-04-08T20:26:14.879Z,96393.31
2024-04-08T20:28:44.714Z,96388.50
2024-04-08T20:31:12.072Z,96385.97
2024-04-08T20:33:40.128Z,96385.16
2024-04-08T20:36:08.975Z,96386.31
2024-04-08T20:38:36.717Z,96381.44
2024-04-08T20:41:08.440Z,96386.41
2024-04-08T20:43:39.511Z,96377.44
2024-04-08T20:46:07.241Z,96384.41
2024-04-08T20:48:34.923Z,96386.25
2024-04-08T20:51:06.580Z,96384.03
2024-04-08T20:53:34.491Z,96376.06
2024-04-08T20:56:03.140Z,96388.19
2024-04-08T20:58:33.592Z,96376.09
2024-04-08T21:01:07.161Z,96385.84
2024-04-08T21:03:34.175Z,96382.63
2024-04-08T21:06:05.878Z,96385.44
2024-04-08T21:08:32.769Z,96381.16
2024-04-08T21:11:03.738Z,96385.22
2024-04-08T21:13:31.464Z,96381.94
2024-04-08T21:16:00.101Z,96383.31
2024-04-08T21:18:27.411Z,96378.59
2024-04-08T21:21:04.682Z,96371.25
2024-04-08T21:23:32.899Z,96372.94
2024-04-08T21:26:14.788Z,96371.94
2024-04-08T21:28:43.486Z,96372.94
2024-04-08T21:31:11.062Z,96364.47
2024-04-08T21:33:39.563Z,96364.91
2024-04-08T21:36:08.033Z,96365.25
2024-04-08T21:38:35.336Z,96366.41
2024-04-08T21:41:04.014Z,96364.84
2024-04-08T21:43:31.719Z,96362.31
2024-04-08T21:46:01.273Z,96357.16
2024-04-08T21:48:28.312Z,96355.94
2024-04-08T21:50:56.375Z,96354.91
2024-04-08T21:53:27.745Z,96358.47
2024-04-08T21:55:56.592Z,96356.47
2024-04-08T21:58:23.860Z,96348.84
2024-04-08T22:00:51.626Z,96352.09
2024-04-08T22:03:18.561Z,96346.56
2024-04-08T22:05:45.795Z,96348.06
2024-04-08T22:08:12.506Z,96345.56
2024-04-08T22:10:39.173Z,96349.34
2024-04-08T22:13:06.377Z,96346.31
2024-04-08T22:15:33.691Z,96345.94
2024-04-08T22:18:00.560Z,96340.78
2024-04-08T22:20:27.456Z,96344.47
2024-04-08T22:22:54.450Z,96346.06
2024-04-08T22:25:21.094Z,96347.63
2024-04-08T22:27:47.781Z,96343.22
2024-04-08T22:30:14.537Z,96343.44
2024-04-08T22:32:41.351Z,96344.78
2024-04-08T22:35:08.093Z,96342.19
2024-04-08T22:37:35.492Z,96335.69
2024-04-08T22:40:06.793Z,96346.25
2024-04-08T22:42:33.934Z,96345.16
2024-04-08T22:45:01.526Z,96347.25
2024-04-08T22:47:28.954Z,96343.06
2024-04-08T22:49:55.941Z,96349.03
2024-04-08T22:52:22.566Z,96338.44
2024-04-08T22:54:51.934Z,96337.63
2024-04-08T22:57:18.657Z,96339.31
2024-04-08T22:59:45.419Z,96337.94
2024-04-08T23:02:12.047Z,96341.56
2024-04-08T23:04:39.264Z,96336.72
2024-04-08T23:07:05.897Z,96333.25
2024-04-08T23:09:32.989Z,96336.72
2024-04-08T23:11:59.903Z,96334.63
2024-04-08T23:14:26.891Z,96331.13
2024-04-08T23:16:54.026Z,96324.34
2024-04-08T23:19:20.883Z,96327.31
2024-04-08T23:21:47.768Z,96332.28
2024-04-08T23:24:14.491Z,96337.88
2024-04-08T23:26:41.861Z,96323.69
2024-04-08T23:29:10.495Z,96329.28
2024-04-08T23:31:37.311Z,96332.91
2024-04-08T23:34:07.759Z,96328.91
2024-04-08T23:36:37.143Z,96330.84
2024-04-08T23:39:06.859Z,96327.38
2024-04-08T23:41:33.653Z,96328.63
2024-04-08T23:44:00.418Z,96323.59
2024-04-08T23:46:27.082Z,96328.91
2024-04-08T23:48:53.848Z,96328.19
2024-04-08T23:51:20.527Z,96321.53
2024-04-08T23:53:47.217Z,96315.72
2024-04-08T23:56:14.003Z,96315.84
2024-04-08T23:58:40.640Z,96306.25
